createdAt,value
2019-03-31T00:03:23.273Z,32.40
2019-03-31T00:08:20.217Z,31.07
2019-03-31T00:13:17.259Z,39.40
2019-03-31T00:18:14.345Z,34.50
2019-03-31T00:23:11.771Z,30.93
2019-03-31T00:28:08.750Z,29.50
2019-03-31T00:33:05.844Z,25.67
2019-03-31T00:38:02.853Z,21.17
2019-03-31T00:43:00.002Z,23.47
2019-03-31T00:47:56.956Z,21.93
2019-03-31T00:52:53.977Z,27.20
2019-03-31T00:57:51.028Z,26.87
2019-03-31T01:02:48.748Z,26.17
2019-03-31T01:07:46.522Z,24.53
2019-03-31T01:12:43.564Z,24.80
2019-03-31T01:17:43.932Z,25.87
2019-03-31T01:22:41.031Z,27.77
2019-03-31T01:27:38.165Z,28.00
2019-03-31T01:32:35.222Z,24.70
2019-03-31T01:37:32.278Z,25.03
2019-03-31T01:42:29.308Z,24.93
2019-03-31T01:47:26.445Z,24.07
2019-03-31T01:52:23.540Z,22.93
2019-03-31T01:57:20.604Z,24.53
2019-03-31T02:02:25.561Z,22.23
2019-03-31T02:07:22.616Z,22.57
2019-03-31T02:12:19.706Z,22.60
2019-03-31T02:17:17.761Z,23.90
2019-03-31T02:22:16.809Z,23.60
2019-03-31T02:27:13.902Z,27.53
2019-03-31T02:32:23.244Z,24.60
2019-03-31T02:37:09.980Z,28.27
2019-03-31T02:42:07.102Z,27.37
2019-03-31T02:47:04.318Z,31.37
2019-03-31T02:52:02.072Z,30.10
2019-03-31T02:56:59.225Z,28.33
2019-03-31T03:01:57.263Z,25.73
2019-03-31T03:06:55.960Z,27.20
2019-03-31T03:11:54.959Z,28.53
2019-03-31T03:16:53.083Z,27.97
2019-03-31T03:21:50.266Z,33.57
2019-03-31T03:26:49.226Z,33.03
2019-03-31T03:31:46.427Z,29.63
2019-03-31T03:36:43.969Z,30.43
2019-03-31T03:41:42.711Z,26.90
2019-03-31T03:46:39.764Z,27.33
2019-03-31T03:51:36.960Z,29.57
2019-03-31T03:56:35.225Z,25.53
2019-03-31T04:01:33.061Z,28.63
2019-03-31T04:06:30.235Z,26.80
2019-03-31T04:11:27.872Z,25.97
2019-03-31T04:16:25.270Z,25.40
2019-03-31T04:21:23.989Z,28.77
2019-03-31T04:26:21.169Z,32.20
2019-03-31T04:31:18.377Z,29.67
2019-03-31T04:36:15.486Z,26.10
2019-03-31T04:41:12.648Z,27.53
2019-03-31T04:46:09.732Z,28.57
2019-03-31T04:51:06.929Z,28.17
2019-03-31T04:56:04.188Z,25.40
2019-03-31T05:01:02.455Z,26.60
2019-03-31T05:05:59.587Z,25.03
2019-03-31T05:10:56.615Z,28.83
2019-03-31T05:15:53.711Z,28.77
2019-03-31T05:20:50.926Z,29.60
2019-03-31T05:25:48.080Z,30.70
2019-03-31T05:30:46.213Z,31.87
2019-03-31T05:35:43.301Z,40.43
2019-03-31T05:40:40.520Z,40.83
2019-03-31T05:45:37.610Z,36.70
2019-03-31T05:50:35.851Z,37.73
2019-03-31T05:55:32.901Z,37.33
2019-03-31T06:00:34.657Z,37.83
2019-03-31T06:05:33.990Z,30.10
2019-03-31T06:10:31.265Z,30.30
2019-03-31T06:15:28.374Z,30.77
2019-03-31T06:20:25.918Z,28.80
2019-03-31T06:25:24.717Z,38.40
2019-03-31T06:30:21.947Z,29.33
2019-03-31T06:35:19.101Z,30.10
2019-03-31T06:40:18.957Z,29.77
2019-03-31T06:45:16.086Z,38.00
2019-03-31T06:50:13.328Z,44.43
2019-03-31T06:55:10.554Z,47.30
2019-03-31T07:00:07.983Z,41.37
2019-03-31T07:05:06.333Z,38.70
2019-03-31T07:10:06.630Z,30.37
2019-03-31T07:15:08.786Z,30.20
2019-03-31T07:20:08.898Z,23.97
2019-03-31T07:25:08.888Z,28.00
2019-03-31T07:30:13.130Z,20.77
2019-03-31T07:35:18.488Z,12.60
2019-03-31T07:40:14.529Z,9.90
2019-03-31T07:45:14.474Z,8.80
2019-03-31T07:50:16.831Z,10.37
2019-03-31T07:55:14.554Z,9.17
2019-03-31T08:00:19.188Z,11.47
2019-03-31T08:05:17.101Z,12.03
2019-03-31T08:10:16.247Z,12.90
2019-03-31T08:15:13.837Z,13.97
2019-03-31T08:20:13.630Z,12.93
2019-03-31T08:25:14.590Z,13.77
2019-03-31T08:30:15.036Z,13.37
2019-03-31T08:35:13.270Z,13.80
2019-03-31T08:40:11.591Z,13.13
2019-03-31T08:45:09.172Z,13.03
2019-03-31T08:50:07.565Z,11.13
2019-03-31T08:55:05.346Z,13.43
2019-03-31T09:00:05.424Z,11.73
2019-03-31T09:05:07.838Z,13.30
2019-03-31T09:10:07.101Z,12.77
2019-03-31T09:15:07.693Z,14.37
2019-03-31T09:20:06.172Z,11.73
2019-03-31T09:25:04.997Z,12.10
2019-03-31T09:30:08.144Z,13.30
2019-03-31T09:35:07.542Z,13.50
2019-03-31T09:40:08.765Z,12.40
2019-03-31T09:45:08.999Z,11.23
2019-03-31T09:50:10.739Z,11.27
2019-03-31T09:55:08.651Z,12.03
2019-03-31T10:00:09.394Z,11.47
2019-03-31T10:05:06.628Z,10.77
2019-03-31T10:10:10.582Z,11.47
2019-03-31T10:15:09.058Z,11.10
2019-03-31T10:20:07.240Z,11.73
2019-03-31T10:25:05.979Z,9.90
2019-03-31T10:30:05.720Z,11.40
2019-03-31T10:35:06.790Z,10.60
2019-03-31T10:40:06.711Z,9.73
2019-03-31T10:45:07.108Z,9.80
2019-03-31T10:50:06.330Z,9.83
2019-03-31T10:55:05.412Z,9.97
2019-03-31T11:00:08.257Z,10.87
2019-03-31T11:05:06.141Z,9.17
2019-03-31T11:10:05.264Z,8.67
2019-03-31T11:15:02.804Z,9.27
2019-03-31T11:20:00.885Z,9.87
2019-03-31T11:24:58.617Z,9.03
2019-03-31T11:29:55.675Z,8.57
2019-03-31T11:34:52.835Z,8.47
2019-03-31T11:39:49.957Z,8.83
2019-03-31T11:44:47.028Z,9.43
2019-03-31T11:49:44.179Z,9.73
2019-03-31T11:54:41.336Z,9.63
2019-03-31T11:59:38.549Z,8.57
2019-03-31T12:04:35.694Z,9.90
2019-03-31T12:09:32.838Z,9.90
2019-03-31T12:14:30.021Z,9.47
2019-03-31T12:19:27.164Z,8.40
2019-03-31T12:24:24.771Z,9.37
2019-03-31T12:29:21.989Z,8.93
2019-03-31T12:34:20.211Z,8.20
2019-03-31T12:39:18.351Z,7.53
2019-03-31T12:44:15.472Z,7.23
2019-03-31T12:49:12.648Z,8.37
2019-03-31T12:54:11.671Z,6.70
2019-03-31T12:59:08.836Z,8.30
2019-03-31T13:04:07.970Z,8.20
2019-03-31T13:09:07.382Z,8.03
2019-03-31T13:14:04.489Z,8.03
2019-03-31T13:19:01.526Z,6.60
2019-03-31T13:23:58.711Z,8.27
2019-03-31T13:28:56.962Z,7.93
2019-03-31T13:33:54.400Z,8.80
2019-03-31T13:38:51.590Z,7.37
2019-03-31T13:43:48.735Z,7.43
2019-03-31T13:48:46.749Z,7.97
2019-03-31T13:53:43.897Z,9.47
2019-03-31T13:58:41.742Z,9.27
2019-03-31T14:03:39.170Z,8.47
2019-03-31T14:08:36.312Z,8.77
2019-03-31T14:13:33.546Z,7.93
2019-03-31T14:18:30.715Z,9.83
2019-03-31T14:23:27.798Z,7.80
2019-03-31T14:28:25.404Z,7.63
2019-03-31T14:33:23.987Z,6.47
2019-03-31T14:38:22.160Z,7.63
2019-03-31T14:43:19.277Z,7.07
2019-03-31T14:48:16.354Z,7.20
2019-03-31T14:53:13.528Z,5.80
2019-03-31T14:58:10.698Z,5.30
2019-03-31T15:03:08.793Z,6.53
2019-03-31T15:08:05.996Z,6.13
2019-03-31T15:13:03.384Z,5.00
2019-03-31T15:18:00.579Z,6.27
2019-03-31T15:22:57.657Z,5.57
2019-03-31T15:27:54.898Z,7.17
2019-03-31T15:32:51.996Z,9.57
2019-03-31T15:37:51.421Z,9.33
2019-03-31T15:42:48.519Z,7.30
2019-03-31T15:47:46.041Z,9.33
2019-03-31T15:52:43.145Z,9.10
2019-03-31T15:57:40.363Z,8.03
2019-03-31T16:02:37.563Z,8.93
2019-03-31T16:07:34.968Z,9.80
2019-03-31T16:12:32.147Z,9.13
2019-03-31T16:17:30.450Z,9.47
2019-03-31T16:22:28.526Z,10.70
2019-03-31T16:27:25.778Z,8.43
2019-03-31T16:32:22.864Z,8.83
2019-03-31T16:37:20.016Z,9.57
2019-03-31T16:42:18.587Z,8.17
2019-03-31T16:47:15.749Z,8.07
2019-03-31T16:52:12.964Z,9.70
2019-03-31T16:57:12.121Z,11.87
2019-03-31T17:02:09.187Z,9.03
2019-03-31T17:07:07.659Z,11.47
2019-03-31T17:12:05.088Z,13.60
2019-03-31T17:17:02.626Z,15.50
2019-03-31T17:22:00.027Z,11.17
2019-03-31T17:26:57.182Z,9.50
2019-03-31T17:31:54.254Z,8.67
2019-03-31T17:36:51.277Z,9.13
2019-03-31T17:41:48.347Z,11.53
2019-03-31T17:46:45.913Z,12.83
2019-03-31T17:51:42.950Z,9.60
2019-03-31T17:56:40.261Z,10.20
2019-03-31T18:01:37.472Z,11.30
2019-03-31T18:06:35.895Z,11.90
2019-03-31T18:11:33.374Z,10.47
2019-03-31T18:16:30.818Z,10.43
2019-03-31T18:21:27.886Z,11.57
2019-03-31T18:26:25.494Z,11.73
2019-03-31T18:31:22.568Z,12.50
2019-03-31T18:36:19.689Z,13.53
2019-03-31T18:41:16.683Z,12.73
2019-03-31T18:46:13.800Z,10.33
2019-03-31T18:51:10.968Z,56.17
2019-03-31T18:56:09.067Z,37.57
2019-03-31T19:01:08.997Z,37.40
2019-03-31T19:06:15.354Z,44.33
2019-03-31T19:11:21.444Z,45.43
2019-03-31T19:16:20.419Z,33.63
2019-03-31T19:21:29.714Z,29.30
2019-03-31T19:26:31.513Z,26.00
2019-03-31T19:31:49.297Z,20.93
2019-03-31T19:37:04.678Z,25.87
2019-03-31T19:42:09.673Z,27.50
2019-03-31T19:47:15.899Z,26.33
2019-03-31T19:52:19.673Z,21.23
2019-03-31T19:57:27.785Z,26.37
2019-03-31T20:02:36.704Z,37.17
2019-03-31T20:07:35.801Z,35.60
2019-03-31T20:12:46.819Z,27.20
2019-03-31T20:17:45.782Z,17.93
2019-03-31T20:23:01.647Z,23.23
2019-03-31T20:28:07.338Z,24.13
2019-03-31T20:33:22.652Z,21.13
2019-03-31T20:38:21.604Z,20.30
2019-03-31T20:43:23.396Z,26.40
2019-03-31T20:48:20.638Z,33.13
2019-03-31T20:53:17.920Z,20.73
2019-03-31T20:58:15.084Z,22.97
2019-03-31T21:03:12.216Z,24.67
2019-03-31T21:08:09.190Z,37.43
2019-03-31T21:13:08.297Z,47.87
2019-03-31T21:18:06.316Z,16.93
2019-03-31T21:23:03.508Z,30.63
2019-03-31T21:28:01.671Z,30.13
2019-03-31T21:32:58.814Z,42.53
2019-03-31T21:37:55.888Z,29.03
2019-03-31T21:42:53.633Z,37.37
2019-03-31T21:47:50.615Z,23.50
2019-03-31T21:52:47.808Z,33.57
2019-03-31T21:57:45.341Z,26.20
2019-03-31T22:02:42.976Z,21.83
2019-03-31T22:07:41.108Z,18.97
2019-03-31T22:12:38.241Z,19.43
2019-03-31T22:17:35.250Z,20.43
2019-03-31T22:22:34.592Z,23.30
2019-03-31T22:27:31.685Z,18.20
2019-03-31T22:32:28.790Z,19.63
2019-03-31T22:37:25.949Z,20.97
2019-03-31T22:42:24.459Z,17.67
2019-03-31T22:47:21.511Z,23.10
2019-03-31T22:52:20.739Z,18.03
2019-03-31T22:57:17.885Z,16.70
2019-03-31T23:02:22.319Z,17.17
2019-03-31T23:07:19.342Z,14.47
2019-03-31T23:12:16.438Z,15.90
2019-03-31T23:17:13.502Z,16.43
2019-03-31T23:22:10.613Z,16.53
2019-03-31T23:27:07.707Z,17.33
2019-03-31T23:32:04.833Z,18.30
2019-03-31T23:37:01.915Z,17.87
2019-03-31T23:41:59.107Z,14.60
2019-03-31T23:46:56.295Z,16.73
2019-03-31T23:51:53.416Z,15.83
2019-03-31T23:56:53.068Z,18.73
